Augusta, MT (59410)

10:49 AM MDT on September 01, 2015 (GMT -0600)
GOSS RANCH - Goss Creek Rd. | | Change Station
CLOSE
Current Station
Personal Weather Station
Location: Augusta, MT
Elevation: 5190 ft
Nearby Weather Stations
Active Advisory: Fire Weather Warning Active Notice: Public Information Statement

Elev 5190 ft 47.39 °N, 112.64 °W | Updated 12 minutes ago

Clear
Clear
64.9 °F
Feels Like 64.9 °F
N
18.1
Wind Variable Wind from West

Today
High -- | Low -- °F
--% Chance of Precip.
Yesterday
High -- | Low -- °F
Precip. -- in
6:49 AM 8:10 PM
Waning Gibbous, 88% visible
Pressure 29.79 in
Visibility 10.0 miles
Clouds Clear
Dew Point 23 °F
Humidity 20%
Rainfall 0.00 in
Snow Depth Not available.
UV 3 out of 12
Pollen 8.80 out of 12
Air Quality Not available.
Flu Activity Not available.
METAR KGTF 011553Z 22024G30KT 10SM CLR 21/03 A2985 RMK AO2 PK WND 22030/1551 SLP088 T02110033
Pressure 29.79 in
Visibility 10.0 miles
Clouds Clear
Dew Point 23 °F
Humidity 20%
Rainfall 0.00 in
Snow Depth Not available.
UV 3 out of 12
Pollen 8.80 out of 12
Air Quality Not available.
Flu Activity Not available.
METAR KGTF 011553Z 22024G30KT 10SM CLR 21/03 A2985 RMK AO2 PK WND 22030/1551 SLP088 T02110033

10-Day Weather Forecast

×

Almanac

Astronomy

Sep. 01, 2015 Rise Set
Actual Time
Civil Twilight
Nautical Twilight
Astronomical Twilight
Moon
Length of Visible Light
Length of Day
Tomorrow will be .
, % of the Moon is Illuminated

Today's Extremes

State Highs State Lows

Community

WunderPhotos

Upload Photos

1,851,555 photos uploaded!

WunderBlogs® & News

Nearby

Air Quality

  Air Quality AQ Index Pollutant
Not available.

Snow Depth

Station Depth Elevation

Earthquake Activity

City Distance Mag. Time & Date
Minimum magnitude displayed is 2.5.

Coastal Water Temperatures

Place Temperature

Stations

Nearby Weather Stations

Station Location Temp. Windchill Dew Point Humidity Wind Precip. Elev Updated Type
                   
Fire Weather Warning
Statement as of 7:35 AM MDT on September 01, 2015

... Red flag warning in effect from noon today to 9 PM MDT this
evening for low humidity and gusty winds for fire weather zone
114...

The National Weather Service in Great Falls has issued a red flag
warning... which is in effect from noon today to 9 PM MDT this
evening.

* Affected area... fire weather zone 114.

* Wind... west to southwest winds 15 to 20 mph with gusts 25 to 30
mph are expected.

* Humidity... minimum humidity values in the afternoon are
forecast to be 15-20 percent.

Precautionary/preparedness actions...

A red flag warning means that critical fire weather conditions
are likely. A combination of gusty winds... low relative
humidity... and warm temperatures will create high fire growth
potential.

Please advise the appropriate officials or fire crews in these
areas of this red flag warning.